Decoded Metar for KIEN (PINE RIDGE in SD, USA) (IATA:IEN) | Meteo·Mobile Aviation Weather
aviador You're here:

KIEN Decoded Metar

PINE RIDGE in SD, USA
Report Time2019-02-20 19:12:00
UTC Time2019-02-20 19:17:05
Flight Rules unknown UNKNOWN
Wind260° at 09 kt
W.Decomp.*RWY 24: 8.9 kt HW 1.6 kt RCW
RWY 30: 5.8 kt HW 6.9 kt LCW
W.Rank260° ranks 3
Current wind is above 260° avg. (7.3)
VisibilityN/A
Phenomena:N/A
Clouds:Scattered 020 Hf
Expected CloudBase > 2,400 ft AGL from Temp-Dew spread
CeilingNone
Temp-6°C (ISA -15)
Dew Point-12°C (63% RH)
AAT-12.4°C
QNH1002 hPa
Density Alt1,916 ft
Elevation3,274 ft
Report Wrong Elevation
Raw Report
KIEN 201912Z AUTO 26009KT SCT020 M06/M12 A2959 RMK AO2 T10561117
$=

Extra information for KIEN:More info

Metar Taf Metar & Taf Last 4 Metars F.Rules Stats Wind Profile Meteogram Temp Stats Airport Information Weather charts Add Link Nearby VenuesMetar ALERT Operation Metar Decoded Social comments

AIRNAV info for KIEN